sensor_id;sensor_type;location;lat;lon;timestamp;pressure;altitude;pressure_sealevel;temperature;humidity
77739;BME280;66904;59.926;30.404;2023-04-23T00:00:05;101074.28;;;25.97;33.02
77739;BME280;66904;59.926;30.404;2023-04-23T00:05:06;101074.28;;;25.97;33.11
77739;BME280;66904;59.926;30.404;2023-04-23T00:10:08;101067.41;;;25.95;33.35
77739;BME280;66904;59.926;30.404;2023-04-23T00:15:10;101070.94;;;25.95;33.16
77739;BME280;66904;59.926;30.404;2023-04-23T00:20:11;101066.75;;;25.93;33.35
77739;BME280;66904;59.926;30.404;2023-04-23T00:25:11;101072.19;;;25.93;33.57
77739;BME280;66904;59.926;30.404;2023-04-23T00:30:12;101072.41;;;25.91;33.13
77739;BME280;66904;59.926;30.404;2023-04-23T00:35:13;101079.69;;;25.91;33.62
77739;BME280;66904;59.926;30.404;2023-04-23T00:40:13;101069.88;;;25.90;33.40
77739;BME280;66904;59.926;30.404;2023-04-23T00:45:14;101068.00;;;25.90;33.37
77739;BME280;66904;59.926;30.404;2023-04-23T00:50:15;101064.28;;;25.91;33.57
77739;BME280;66904;59.926;30.404;2023-04-23T00:55:16;101065.91;;;25.92;33.00
77739;BME280;66904;59.926;30.404;2023-04-23T01:00:20;101063.44;;;25.91;33.14
77739;BME280;66904;59.926;30.404;2023-04-23T01:05:22;101061.56;;;25.91;33.11
77739;BME280;66904;59.926;30.404;2023-04-23T01:10:23;101060.91;;;25.89;33.01
77739;BME280;66904;59.926;30.404;2023-04-23T01:15:24;101051.94;;;25.89;33.19
77739;BME280;66904;59.926;30.404;2023-04-23T01:20:24;101066.75;;;25.93;32.98
77739;BME280;66904;59.926;30.404;2023-04-23T01:25:25;101067.81;;;25.92;32.87
77739;BME280;66904;59.926;30.404;2023-04-23T01:30:26;101071.34;;;25.92;32.93
77739;BME280;66904;59.926;30.404;2023-04-23T01:35:27;101059.69;;;25.92;32.64
77739;BME280;66904;59.926;30.404;2023-04-23T01:40:28;101074.06;;;25.92;32.76
77739;BME280;66904;59.926;30.404;2023-04-23T01:45:30;101063.44;;;25.91;32.81
77739;BME280;66904;59.926;30.404;2023-04-23T01:50:31;101062.41;;;25.92;32.62
77739;BME280;66904;59.926;30.404;2023-04-23T01:55:33;101060.06;;;25.89;32.79
77739;BME280;66904;59.926;30.404;2023-04-23T02:00:33;101053.44;;;25.91;32.58
77739;BME280;66904;59.926;30.404;2023-04-23T02:05:35;101054.47;;;25.90;32.72
77739;BME280;66904;59.926;30.404;2023-04-23T02:10:36;101043.19;;;25.87;32.38
77739;BME280;66904;59.926;30.404;2023-04-23T02:15:36;101054.47;;;25.90;32.34
77739;BME280;66904;59.926;30.404;2023-04-23T02:20:37;101051.75;;;25.90;32.68
77739;BME280;66904;59.926;30.404;2023-04-23T02:25:40;101052.59;;;25.91;32.55
77739;BME280;66904;59.926;30.404;2023-04-23T02:30:42;101066.34;;;25.89;32.34
77739;BME280;66904;59.926;30.404;2023-04-23T02:35:45;101049.03;;;25.84;32.33
77739;BME280;66904;59.926;30.404;2023-04-23T02:40:46;101053.00;;;25.88;32.12
77739;BME280;66904;59.926;30.404;2023-04-23T02:45:46;101048.84;;;25.85;32.07
77739;BME280;66904;59.926;30.404;2023-04-23T02:50:47;101048.78;;;25.79;32.17
77739;BME280;66904;59.926;30.404;2023-04-23T02:55:48;101055.28;;;25.84;32.00
77739;BME280;66904;59.926;30.404;2023-04-23T03:00:48;101063.00;;;25.87;31.92
77739;BME280;66904;59.926;30.404;2023-04-23T03:05:49;101059.44;;;25.87;31.82
77739;BME280;66904;59.926;30.404;2023-04-23T03:10:50;101047.78;;;25.86;31.80
77739;BME280;66904;59.926;30.404;2023-04-23T03:15:51;101056.75;;;25.87;31.93
77739;BME280;66904;59.926;30.404;2023-04-23T03:20:52;101048.19;;;25.83;31.89
77739;BME280;66904;59.926;30.404;2023-04-23T03:25:52;101056.97;;;25.85;31.95
77739;BME280;66904;59.926;30.404;2023-04-23T03:30:53;101050.91;;;25.83;32.02
77739;BME280;66904;59.926;30.404;2023-04-23T03:35:53;101056.97;;;25.85;31.47
77739;BME280;66904;59.926;30.404;2023-04-23T03:40:54;101062.56;;;25.84;31.44
77739;BME280;66904;59.926;30.404;2023-04-23T03:45:54;101073.41;;;25.84;31.87
77739;BME280;66904;59.926;30.404;2023-04-23T03:50:55;101063.81;;;25.81;31.53
77739;BME280;66904;59.926;30.404;2023-04-23T03:55:55;101075.28;;;25.83;31.44
77739;BME280;66904;59.926;30.404;2023-04-23T04:00:56;101064.44;;;25.77;31.60
77739;BME280;66904;59.926;30.404;2023-04-23T04:05:56;101070.09;;;25.82;30.98
77739;BME280;66904;59.926;30.404;2023-04-23T04:10:57;101076.31;;;25.82;31.45
77739;BME280;66904;59.926;30.404;2023-04-23T04:15:57;101079.03;;;25.82;31.01
77739;BME280;66904;59.926;30.404;2023-04-23T04:20:58;101061.28;;;25.73;30.99
77739;BME280;66904;59.926;30.404;2023-04-23T04:25:59;101075.69;;;25.80;30.91
77739;BME280;66904;59.926;30.404;2023-04-23T04:30:59;101057.31;;;25.69;30.92
77739;BME280;66904;59.926;30.404;2023-04-23T04:36:01;101079.22;;;25.74;31.01
77739;BME280;66904;59.926;30.404;2023-04-23T04:41:02;101085.28;;;25.76;30.78
77739;BME280;66904;59.926;30.404;2023-04-23T04:46:03;101080.91;;;25.75;30.91
77739;BME280;66904;59.926;30.404;2023-04-23T04:51:04;101086.34;;;25.75;31.09
77739;BME280;66904;59.926;30.404;2023-04-23T04:56:04;101098.22;;;25.81;31.61
77739;BME280;66904;59.926;30.404;2023-04-23T05:01:05;101078.00;;;25.83;31.82
77739;BME280;66904;59.926;30.404;2023-04-23T05:06:06;101089.72;;;25.97;32.21
77739;BME280;66904;59.926;30.404;2023-04-23T05:11:06;101097.69;;;26.05;32.47
77739;BME280;66904;59.926;30.404;2023-04-23T05:16:07;101101.44;;;26.10;32.63
77739;BME280;66904;59.926;30.404;2023-04-23T05:21:08;101092.88;;;26.13;32.78
77739;BME280;66904;59.926;30.404;2023-04-23T05:26:09;101096.44;;;26.14;32.64
77739;BME280;66904;59.926;30.404;2023-04-23T05:31:10;101091.44;;;26.11;32.46
77739;BME280;66904;59.926;30.404;2023-04-23T05:36:11;101093.91;;;26.06;32.35
77739;BME280;66904;59.926;30.404;2023-04-23T05:41:11;101092.25;;;25.98;31.83
77739;BME280;66904;59.926;30.404;2023-04-23T05:46:12;101097.66;;;25.98;31.81
77739;BME280;66904;59.926;30.404;2023-04-23T05:51:13;101088.44;;;25.86;32.02
77739;BME280;66904;59.926;30.404;2023-04-23T05:56:13;101113.69;;;25.93;31.68
77739;BME280;66904;59.926;30.404;2023-04-23T06:01:14;101108.09;;;25.95;32.00
77739;BME280;66904;59.926;30.404;2023-04-23T06:06:14;101122.09;;;26.05;31.51
77739;BME280;66904;59.926;30.404;2023-04-23T06:11:15;101117.72;;;26.10;31.46
77739;BME280;66904;59.926;30.404;2023-04-23T06:16:15;101111.47;;;26.16;31.95
77739;BME280;66904;59.926;30.404;2023-04-23T06:21:16;101122.97;;;26.18;32.22
77739;BME280;66904;59.926;30.404;2023-04-23T06:26:17;101122.97;;;26.25;31.62
77739;BME280;66904;59.926;30.404;2023-04-23T06:31:17;101132.34;;;26.23;31.42
77739;BME280;66904;59.926;30.404;2023-04-23T06:36:18;101125.47;;;26.20;31.06
77739;BME280;66904;59.926;30.404;2023-04-23T06:41:19;101119.63;;;26.16;31.30
77739;BME280;66904;59.926;30.404;2023-04-23T06:46:20;101124.59;;;26.13;31.52
77739;BME280;66904;59.926;30.404;2023-04-23T06:51:20;101122.91;;;26.12;31.29
77739;BME280;66904;59.926;30.404;2023-04-23T06:56:21;101116.88;;;26.10;31.02
77739;BME280;66904;59.926;30.404;2023-04-23T07:01:21;101109.34;;;26.05;31.00
77739;BME280;66904;59.926;30.404;2023-04-23T07:06:22;101120.47;;;26.17;31.28
77739;BME280;66904;59.926;30.404;2023-04-23T07:11:22;101127.34;;;26.19;31.29
77739;BME280;66904;59.926;30.404;2023-04-23T07:16:23;101136.13;;;26.22;31.17
77739;BME280;66904;59.926;30.404;2023-04-23T07:21:25;101120.66;;;26.22;30.95
77739;BME280;66904;59.926;30.404;2023-04-23T07:26:26;101122.16;;;26.18;30.52
77739;BME280;66904;59.926;30.404;2023-04-23T07:31:27;101125.28;;;26.22;30.83
77739;BME280;66904;59.926;30.404;2023-04-23T07:36:27;101136.13;;;26.22;30.32
77739;BME280;66904;59.926;30.404;2023-04-23T07:41:28;101139.47;;;26.24;30.73
77739;BME280;66904;59.926;30.404;2023-04-23T07:46:29;101140.09;;;26.26;30.29
77739;BME280;66904;59.926;30.404;2023-04-23T07:51:29;101142.38;;;26.29;30.07
77739;BME280;66904;59.926;30.404;2023-04-23T07:56:31;101134.91;;;26.31;30.29
77739;BME280;66904;59.926;30.404;2023-04-23T08:01:32;101132.19;;;26.31;30.45
77739;BME280;66904;59.926;30.404;2023-04-23T08:06:33;101143.66;;;26.33;30.25
77739;BME280;66904;59.926;30.404;2023-04-23T08:11:34;101139.06;;;26.33;30.05
77739;BME280;66904;59.926;30.404;2023-04-23T08:16:35;101139.06;;;26.33;30.12
77739;BME280;66904;59.926;30.404;2023-04-23T08:21:36;101144.69;;;26.32;29.95
77739;BME280;66904;59.926;30.404;2023-04-23T08:26:37;101151.38;;;26.36;29.94
77739;BME280;66904;59.926;30.404;2023-04-23T08:31:37;101149.72;;;26.35;29.96
77739;BME280;66904;59.926;30.404;2023-04-23T08:36:38;101150.34;;;26.37;29.78
77739;BME280;66904;59.926;30.404;2023-04-23T08:41:40;101164.75;;;26.37;29.70
77739;BME280;66904;59.926;30.404;2023-04-23T08:46:44;101163.72;;;26.38;29.83
77739;BME280;66904;59.926;30.404;2023-04-23T08:51:57;101153.91;;;26.44;30.39
77739;BME280;66904;59.926;30.404;2023-04-23T08:57:02;101156.81;;;26.42;30.79
77739;BME280;66904;59.926;30.404;2023-04-23T09:02:03;101158.31;;;26.45;30.23
77739;BME280;66904;59.926;30.404;2023-04-23T09:07:09;101157.22;;;26.46;30.07
77739;BME280;66904;59.926;30.404;2023-04-23T09:12:10;101157.03;;;26.47;29.90
77739;BME280;66904;59.926;30.404;2023-04-23T09:17:11;101161.22;;;26.50;30.26
77739;BME280;66904;59.926;30.404;2023-04-23T09:22:11;101159.13;;;26.52;30.26
77739;BME280;66904;59.926;30.404;2023-04-23T09:27:12;101158.09;;;26.53;29.98
77739;BME280;66904;59.926;30.404;2023-04-23T09:32:12;101159.34;;;26.57;30.39
77739;BME280;66904;59.926;30.404;2023-04-23T09:37:17;101157.91;;;26.61;29.63
77739;BME280;66904;59.926;30.404;2023-04-23T09:42:22;101154.94;;;26.62;29.40
77739;BME280;66904;59.926;30.404;2023-04-23T09:47:23;101148.50;;;26.63;29.81
77739;BME280;66904;59.926;30.404;2023-04-23T09:52:23;101145.97;;;26.62;29.94
77739;BME280;66904;59.926;30.404;2023-04-23T09:57:24;101154.53;;;26.65;29.68
77739;BME280;66904;59.926;30.404;2023-04-23T10:02:26;101157.47;;;26.64;29.76
77739;BME280;66904;59.926;30.404;2023-04-23T10:07:31;101163.31;;;26.67;29.72
77739;BME280;66904;59.926;30.404;2023-04-23T10:12:32;101154.53;;;26.65;29.34
77739;BME280;66904;59.926;30.404;2023-04-23T10:17:35;101166.03;;;26.67;29.17
77739;BME280;66904;59.926;30.404;2023-04-23T10:22:37;101163.09;;;26.69;29.62
77739;BME280;66904;59.926;30.404;2023-04-23T10:27:40;101162.06;;;26.70;29.13
77739;BME280;66904;59.926;30.404;2023-04-23T10:32:41;101153.69;;;26.71;29.48
77739;BME280;66904;59.926;30.404;2023-04-23T10:37:44;101153.31;;;26.68;28.80
77739;BME280;66904;59.926;30.404;2023-04-23T10:42:46;101152.66;;;26.72;29.15
77739;BME280;66904;59.926;30.404;2023-04-23T10:47:47;101152.66;;;26.72;28.93
77739;BME280;66904;59.926;30.404;2023-04-23T10:52:48;101150.19;;;26.71;29.24
77739;BME280;66904;59.926;30.404;2023-04-23T10:58:02;101148.06;;;26.73;28.43
77739;BME280;66904;59.926;30.404;2023-04-23T11:03:03;101149.94;;;26.72;29.09
77739;BME280;66904;59.926;30.404;2023-04-23T11:08:07;101146.19;;;26.73;29.33
77739;BME280;66904;59.926;30.404;2023-04-23T11:13:22;101138.25;;;26.79;30.44
77739;BME280;66904;59.926;30.404;2023-04-23T11:18:23;101135.75;;;26.77;30.23
77739;BME280;66904;59.926;30.404;2023-04-23T11:23:30;101142.03;;;26.78;30.30
77739;BME280;66904;59.926;30.404;2023-04-23T11:28:32;101139.09;;;26.79;30.55
77739;BME280;66904;59.926;30.404;2023-04-23T11:33:37;101137.84;;;26.82;31.18
77739;BME280;66904;59.926;30.404;2023-04-23T11:38:38;101134.94;;;26.83;30.96
77739;BME280;66904;59.926;30.404;2023-04-23T11:43:38;101134.94;;;26.83;30.82
77739;BME280;66904;59.926;30.404;2023-04-23T11:48:39;101115.69;;;26.78;30.92
77739;BME280;66904;59.926;30.404;2023-04-23T11:53:46;101120.75;;;26.94;31.40
77739;BME280;66904;59.926;30.404;2023-04-23T11:58:47;101114.47;;;26.94;31.60
77739;BME280;66904;59.926;30.404;2023-04-23T12:03:47;101119.47;;;26.97;31.05
77739;BME280;66904;59.926;30.404;2023-04-23T12:08:48;101113.00;;;26.98;31.19
77739;BME280;66904;59.926;30.404;2023-04-23T12:13:49;101113.63;;;27.00;30.95
77739;BME280;66904;59.926;30.404;2023-04-23T12:18:52;101118.44;;;27.04;31.13
77739;BME280;66904;59.926;30.404;2023-04-23T12:23:53;101086.06;;;26.96;31.00
77739;BME280;66904;59.926;30.404;2023-04-23T12:28:55;101101.72;;;27.07;30.38
77739;BME280;66904;59.926;30.404;2023-04-23T12:34:06;101099.41;;;27.11;30.80
77739;BME280;66904;59.926;30.404;2023-04-23T12:39:27;101087.69;;;27.10;30.45
77739;BME280;66904;59.926;30.404;2023-04-23T12:44:35;101086.03;;;27.09;30.71
77739;BME280;66904;59.926;30.404;2023-04-23T12:49:38;101078.72;;;27.03;30.39
77739;BME280;66904;59.926;30.404;2023-04-23T12:54:39;101075.38;;;27.01;30.58
77739;BME280;66904;59.926;30.404;2023-04-23T12:59:40;101071.44;;;26.97;30.80
77739;BME280;66904;59.926;30.404;2023-04-23T13:04:40;101069.34;;;26.99;30.27
77739;BME280;66904;59.926;30.404;2023-04-23T13:09:41;101060.56;;;26.97;30.66
77739;BME280;66904;59.926;30.404;2023-04-23T13:14:42;101062.88;;;27.00;30.43
77739;BME280;66904;59.926;30.404;2023-04-23T13:19:42;101059.06;;;27.01;30.74
77739;BME280;66904;59.926;30.404;2023-04-23T13:24:44;101053.66;;;27.01;30.53
77739;BME280;66904;59.926;30.404;2023-04-23T13:29:44;101045.31;;;27.03;30.88
77739;BME280;66904;59.926;30.404;2023-04-23T13:34:45;101045.91;;;27.05;30.97
77739;BME280;66904;59.926;30.404;2023-04-23T13:39:45;101039.44;;;27.06;31.62
77739;BME280;66904;59.926;30.404;2023-04-23T13:44:46;101033.84;;;27.01;31.09
77739;BME280;66904;59.926;30.404;2023-04-23T13:49:46;101030.03;;;27.02;31.86
77739;BME280;66904;59.926;30.404;2023-04-23T13:54:47;101032.16;;;27.00;31.57
77739;BME280;66904;59.926;30.404;2023-04-23T13:59:48;101026.31;;;26.96;31.33
77739;BME280;66904;59.926;30.404;2023-04-23T14:09:51;101004.81;;;26.88;32.08
77739;BME280;66904;59.926;30.404;2023-04-23T14:14:52;101008.75;;;26.99;32.56
77739;BME280;66904;59.926;30.404;2023-04-23T14:19:52;101003.72;;;27.02;33.00
77739;BME280;66904;59.926;30.404;2023-04-23T14:25:01;100993.28;;;26.99;33.74
77739;BME280;66904;59.926;30.404;2023-04-23T14:30:02;100999.97;;;27.03;33.89
77739;BME280;66904;59.926;30.404;2023-04-23T14:35:06;100998.94;;;27.04;33.77
77739;BME280;66904;59.926;30.404;2023-04-23T14:40:07;100982.84;;;27.03;34.21
77739;BME280;66904;59.926;30.404;2023-04-23T14:45:08;100980.97;;;27.03;34.11
77739;BME280;66904;59.926;30.404;2023-04-23T14:50:09;100981.16;;;27.02;33.85
77739;BME280;66904;59.926;30.404;2023-04-23T14:55:10;100973.84;;;27.02;34.04
77739;BME280;66904;59.926;30.404;2023-04-23T15:00:11;100966.38;;;26.98;34.31
77739;BME280;66904;59.926;30.404;2023-04-23T15:05:14;100966.97;;;27.00;34.38
77739;BME280;66904;59.926;30.404;2023-04-23T15:10:15;100957.97;;;26.99;33.79
77739;BME280;66904;59.926;30.404;2023-04-23T15:15:27;100966.56;;;26.96;33.99
77739;BME280;66904;59.926;30.404;2023-04-23T15:20:35;100951.56;;;26.87;33.85
77739;BME280;66904;59.926;30.404;2023-04-23T15:25:36;100957.19;;;26.92;33.71
77739;BME280;66904;59.926;30.404;2023-04-23T15:30:38;100940.06;;;26.79;33.30
77739;BME280;66904;59.926;30.404;2023-04-23T15:35:39;100946.34;;;26.86;33.18
77739;BME280;66904;59.926;30.404;2023-04-23T15:40:39;100943.84;;;26.84;32.88
77739;BME280;66904;59.926;30.404;2023-04-23T15:45:42;100953.03;;;26.83;32.92
77739;BME280;66904;59.926;30.404;2023-04-23T15:50:45;100944.06;;;26.83;32.79
77739;BME280;66904;59.926;30.404;2023-04-23T15:55:45;100943.63;;;26.79;32.34
77739;BME280;66904;59.926;30.404;2023-04-23T16:00:48;100935.47;;;26.79;33.00
77739;BME280;66904;59.926;30.404;2023-04-23T16:05:49;100937.16;;;26.80;32.71
77739;BME280;66904;59.926;30.404;2023-04-23T16:10:51;100938.84;;;26.81;32.59
77739;BME280;66904;59.926;30.404;2023-04-23T16:15:51;100938.84;;;26.81;31.91
77739;BME280;66904;59.926;30.404;2023-04-23T16:20:53;100936.31;;;26.80;32.39
77739;BME280;66904;59.926;30.404;2023-04-23T16:25:54;100940.06;;;26.79;31.83
77739;BME280;66904;59.926;30.404;2023-04-23T16:30:56;100934.63;;;26.79;31.83
77739;BME280;66904;59.926;30.404;2023-04-23T16:35:57;100921.28;;;26.77;32.30
77739;BME280;66904;59.926;30.404;2023-04-23T16:40:58;100930.88;;;26.80;31.78
77739;BME280;66904;59.926;30.404;2023-04-23T16:45:59;100915.84;;;26.77;31.78
77739;BME280;66904;59.926;30.404;2023-04-23T16:50:59;100920.44;;;26.77;32.03
77739;BME280;66904;59.926;30.404;2023-04-23T16:56:01;100928.78;;;26.75;31.97
77739;BME280;66904;59.926;30.404;2023-04-23T17:01:01;100929.22;;;26.72;31.60
77739;BME280;66904;59.926;30.404;2023-04-23T17:06:23;100938.22;;;26.72;31.36
77739;BME280;66904;59.926;30.404;2023-04-23T17:11:26;100935.91;;;26.69;31.43
77739;BME280;66904;59.926;30.404;2023-04-23T17:16:27;100941.34;;;26.69;31.69
77739;BME280;66904;59.926;30.404;2023-04-23T17:21:28;100954.09;;;26.69;31.19
77739;BME280;66904;59.926;30.404;2023-04-23T17:26:28;100956.78;;;26.69;31.03
77739;BME280;66904;59.926;30.404;2023-04-23T17:31:29;100962.88;;;26.71;31.59
77739;BME280;66904;59.926;30.404;2023-04-23T17:36:29;100970.38;;;26.69;31.82
77739;BME280;66904;59.926;30.404;2023-04-23T17:41:30;100973.50;;;26.66;31.28
77739;BME280;66904;59.926;30.404;2023-04-23T17:46:30;100965.78;;;26.63;31.57
77739;BME280;66904;59.926;30.404;2023-04-23T17:51:31;100964.97;;;26.62;31.41
77739;BME280;66904;59.926;30.404;2023-04-23T17:56:32;100961.63;;;26.60;31.36
77739;BME280;66904;59.926;30.404;2023-04-23T18:01:32;100965.38;;;26.59;31.20
77739;BME280;66904;59.926;30.404;2023-04-23T18:06:33;100954.97;;;26.56;31.18
77739;BME280;66904;59.926;30.404;2023-04-23T18:11:36;100938.09;;;26.48;31.30
77739;BME280;66904;59.926;30.404;2023-04-23T18:16:36;100946.81;;;26.56;31.04
77739;BME280;66904;59.926;30.404;2023-04-23T18:21:37;100940.75;;;26.61;30.93
77739;BME280;66904;59.926;30.404;2023-04-23T18:26:37;100931.56;;;26.62;31.46
77739;BME280;66904;59.926;30.404;2023-04-23T18:31:38;100929.25;;;26.65;31.63
77739;BME280;66904;59.926;30.404;2023-04-23T18:36:41;100924.47;;;26.67;31.30
77739;BME280;66904;59.926;30.404;2023-04-23T18:41:44;100928.22;;;26.66;31.42
77739;BME280;66904;59.926;30.404;2023-04-23T18:46:45;100925.91;;;26.70;31.34
77739;BME280;66904;59.926;30.404;2023-04-23T18:51:49;100926.75;;;26.70;31.05
77739;BME280;66904;59.926;30.404;2023-04-23T18:56:50;100915.03;;;26.70;30.76
77739;BME280;66904;59.926;30.404;2023-04-23T19:01:53;100914.00;;;26.71;30.67
77739;BME280;66904;59.926;30.404;2023-04-23T19:06:54;100910.44;;;26.70;31.03
77739;BME280;66904;59.926;30.404;2023-04-23T19:11:55;100907.75;;;26.70;30.76
77739;BME280;66904;59.926;30.404;2023-04-23T19:16:55;100904.19;;;26.70;30.94
77739;BME280;66904;59.926;30.404;2023-04-23T19:21:56;100895.81;;;26.71;30.83
77739;BME280;66904;59.926;30.404;2023-04-23T19:26:56;100893.97;;;26.65;31.17
77739;BME280;66904;59.926;30.404;2023-04-23T19:31:57;100893.97;;;26.65;31.11
77739;BME280;66904;59.926;30.404;2023-04-23T19:36:57;100890.63;;;26.63;30.78
77739;BME280;66904;59.926;30.404;2023-04-23T19:41:58;100882.09;;;26.60;30.79
77739;BME280;66904;59.926;30.404;2023-04-23T19:46:58;100879.81;;;26.57;30.61
77739;BME280;66904;59.926;30.404;2023-04-23T19:52:00;100865.00;;;26.53;30.30
77739;BME280;66904;59.926;30.404;2023-04-23T19:57:02;100862.09;;;26.48;30.50
77739;BME280;66904;59.926;30.404;2023-04-23T20:02:03;100864.41;;;26.44;30.12
77739;BME280;66904;59.926;30.404;2023-04-23T20:07:03;100856.91;;;26.40;30.11
77739;BME280;66904;59.926;30.404;2023-04-23T20:12:04;100848.97;;;26.32;30.15
77739;BME280;66904;59.926;30.404;2023-04-23T20:17:06;100849.63;;;26.34;29.80
77739;BME280;66904;59.926;30.404;2023-04-23T20:22:06;100835.00;;;26.35;29.69
77739;BME280;66904;59.926;30.404;2023-04-23T20:27:07;100837.69;;;26.41;29.57
77739;BME280;66904;59.926;30.404;2023-04-23T20:32:07;100826.44;;;26.38;29.47
77739;BME280;66904;59.926;30.404;2023-04-23T20:37:08;100827.03;;;26.46;29.88
77739;BME280;66904;59.926;30.404;2023-04-23T20:42:09;100829.50;;;26.54;29.27
77739;BME280;66904;59.926;30.404;2023-04-23T20:47:09;100831.78;;;26.57;29.04
77739;BME280;66904;59.926;30.404;2023-04-23T20:52:10;100820.53;;;26.54;29.49
77739;BME280;66904;59.926;30.404;2023-04-23T20:57:12;100819.06;;;26.58;29.67
77739;BME280;66904;59.926;30.404;2023-04-23T21:02:13;100812.94;;;26.69;30.39
77739;BME280;66904;59.926;30.404;2023-04-23T21:07:14;100808.91;;;26.78;29.96
77739;BME280;66904;59.926;30.404;2023-04-23T21:12:14;100811.03;;;26.83;30.51
77739;BME280;66904;59.926;30.404;2023-04-23T21:17:15;100790.53;;;26.87;30.60
77739;BME280;66904;59.926;30.404;2023-04-23T21:22:16;100797.41;;;26.89;30.70
77739;BME280;66904;59.926;30.404;2023-04-23T21:27:17;100807.81;;;26.92;30.82
77739;BME280;66904;59.926;30.404;2023-04-23T21:32:20;100789.25;;;26.89;30.89
77739;BME280;66904;59.926;30.404;2023-04-23T21:37:21;100795.09;;;26.93;30.88
77739;BME280;66904;59.926;30.404;2023-04-23T21:42:21;100801.34;;;26.93;30.80
77739;BME280;66904;59.926;30.404;2023-04-23T21:47:22;100794.88;;;26.94;30.87
77739;BME280;66904;59.926;30.404;2023-04-23T21:52:22;100794.25;;;26.92;30.96
77739;BME280;66904;59.926;30.404;2023-04-23T21:57:23;100784.06;;;26.88;31.02
77739;BME280;66904;59.926;30.404;2023-04-23T22:02:24;100787.19;;;26.85;30.77
77739;BME280;66904;59.926;30.404;2023-04-23T22:07:24;100791.19;;;26.82;30.57
77739;BME280;66904;59.926;30.404;2023-04-23T22:12:26;100787.63;;;26.82;30.87
77739;BME280;66904;59.926;30.404;2023-04-23T22:17:26;100780.72;;;26.79;30.56
77739;BME280;66904;59.926;30.404;2023-04-23T22:22:29;100787.81;;;26.80;30.84
77739;BME280;66904;59.926;30.404;2023-04-23T22:27:30;100788.66;;;26.81;30.49
77739;BME280;66904;59.926;30.404;2023-04-23T22:32:31;100776.34;;;26.78;30.63
77739;BME280;66904;59.926;30.404;2023-04-23T22:37:31;100771.97;;;26.77;30.86
77739;BME280;66904;59.926;30.404;2023-04-23T22:42:32;100772.56;;;26.79;30.66
77739;BME280;66904;59.926;30.404;2023-04-23T22:47:33;100783.69;;;26.78;30.52
77739;BME280;66904;59.926;30.404;2023-04-23T22:52:34;100751.56;;;26.68;30.74
77739;BME280;66904;59.926;30.404;2023-04-23T22:57:34;100777.16;;;26.79;30.38
77739;BME280;66904;59.926;30.404;2023-04-23T23:02:35;100768.44;;;26.77;30.67
77739;BME280;66904;59.926;30.404;2023-04-23T23:07:35;100755.72;;;26.70;30.58
77739;BME280;66904;59.926;30.404;2023-04-23T23:12:36;100759.44;;;26.76;30.78
77739;BME280;66904;59.926;30.404;2023-04-23T23:17:38;100758.59;;;26.76;30.36
77739;BME280;66904;59.926;30.404;2023-04-23T23:22:38;100753.41;;;26.74;30.44
77739;BME280;66904;59.926;30.404;2023-04-23T23:27:39;100755.91;;;26.76;30.68
77739;BME280;66904;59.926;30.404;2023-04-23T23:32:40;100739.88;;;26.67;30.33
77739;BME280;66904;59.926;30.404;2023-04-23T23:37:41;100735.84;;;26.77;30.57
77739;BME280;66904;59.926;30.404;2023-04-23T23:42:41;100737.28;;;26.79;30.20
77739;BME280;66904;59.926;30.404;2023-04-23T23:47:42;100733.53;;;26.80;30.32
77739;BME280;66904;59.926;30.404;2023-04-23T23:52:42;100718.28;;;26.79;30.55
77739;BME280;66904;59.926;30.404;2023-04-23T23:57:43;100719.13;;;26.80;30.47
